Time;durP1;ratioP1;P1;durP2;ratioP2;P2;SDS_P1;SDS_P2;PMS_P1;PMS_P2;Temp;Humidity;BMP_temperature;BMP_pressure;BME280_temperature;BME280_humidity;BME280_pressure;Samples;Min_cycle;Max_cycle;Signal;HPM_P1;HPM_P2
2023/10/23 00:01:00;;;;;;;21.50;12.63;;;;;;;17.65;86.32;99487.41;5092283;28;20266;-69
2023/10/23 00:03:27;;;;;;;17.23;11.70;;;;;;;17.59;85.59;99466.88;5091825;28;20621;-69
2023/10/23 00:05:54;;;;;;;20.47;11.17;;;;;;;17.62;85.60;99456.47;5092108;28;20191;-70
2023/10/23 00:08:20;;;;;;;27.30;11.27;;;;;;;17.67;85.25;99485.28;5092048;28;20252;-70
2023/10/23 00:10:48;;;;;;;24.90;12.23;;;;;;;17.70;85.62;99482.13;5091994;28;20623;-70
2023/10/23 00:13:15;;;;;;;26.43;11.73;;;;;;;17.71;84.96;99487.25;5091773;28;20304;-71
2023/10/23 00:15:42;;;;;;;13.87;10.60;;;;;;;17.63;84.71;99478.75;5091528;28;20249;-70
2023/10/23 00:18:09;;;;;;;17.67;11.17;;;;;;;17.65;85.30;99490.09;5091640;28;20694;-71
2023/10/23 00:20:35;;;;;;;24.20;12.97;;;;;;;17.63;85.41;99484.13;5091913;28;20203;-71
2023/10/23 00:23:02;;;;;;;19.90;11.50;;;;;;;17.66;85.26;99486.34;5091651;28;20656;-69
2023/10/23 00:25:29;;;;;;;22.37;11.07;;;;;;;17.69;84.86;99488.56;5091716;28;20195;-69
2023/10/23 00:27:57;;;;;;;15.83;11.53;;;;;;;17.67;84.20;99485.28;5091625;28;20702;-70
2023/10/23 00:30:24;;;;;;;21.07;11.37;;;;;;;17.66;84.40;99489.03;5091497;28;20669;-70
2023/10/23 00:32:50;;;;;;;19.10;11.93;;;;;;;17.64;85.05;99483.09;5091469;28;20191;-69
2023/10/23 00:35:17;;;;;;;17.60;11.50;;;;;;;17.62;84.68;99487.88;5091388;28;20198;-69
2023/10/23 00:37:44;;;;;;;19.60;12.13;;;;;;;17.57;85.07;99485.94;5091781;28;20215;-69
2023/10/23 00:40:11;;;;;;;19.77;11.60;;;;;;;17.56;85.33;99495.03;5091376;28;20193;-69
2023/10/23 00:42:38;;;;;;;20.27;11.93;;;;;;;17.56;85.61;99491.56;5091630;28;20193;-70
2023/10/23 00:45:08;;;;;;;21.37;11.50;;;;;;;17.56;86.09;99494.22;5091631;28;20198;-70
2023/10/23 00:47:34;;;;;;;18.40;11.77;;;;;;;17.56;85.94;99504.97;5091370;28;20633;-70
2023/10/23 00:50:03;;;;;;;23.17;12.30;;;;;;;17.49;86.72;99509.66;5091581;28;20195;-70
2023/10/23 00:52:30;;;;;;;19.67;11.70;;;;;;;17.46;86.32;99504.78;5091298;28;20573;-70
2023/10/23 00:54:57;;;;;;;18.57;12.17;;;;;;;17.42;85.91;99517.03;5091542;28;20327;-70
2023/10/23 00:57:24;;;;;;;22.57;12.10;;;;;;;17.42;87.03;99517.03;5091200;28;20661;-70
2023/10/23 00:59:51;;;;;;;16.63;11.60;;;;;;;17.44;86.53;99517.63;5091404;28;20250;-70
2023/10/23 01:02:19;;;;;;;19.73;11.83;;;;;;;17.45;86.30;99517.41;5091236;28;20249;-70
2023/10/23 01:04:46;;;;;;;16.77;11.40;;;;;;;17.47;85.74;99509.91;5091606;28;20282;-71
2023/10/23 01:07:13;;;;;;;20.77;11.67;;;;;;;17.44;85.98;99509.59;5091488;28;20191;-70
2023/10/23 01:09:39;;;;;;;19.00;11.00;;;;;;;17.49;86.11;99513.19;5091118;28;20196;-70
2023/10/23 01:12:07;;;;;;;19.50;12.23;;;;;;;17.49;85.70;99515.03;5091014;28;20623;-69
2023/10/23 01:14:34;;;;;;;13.23;11.03;;;;;;;17.52;85.65;99506.50;5091624;28;20557;-69
2023/10/23 01:17:00;;;;;;;19.00;11.97;;;;;;;17.52;85.21;99509.19;5091334;28;20194;-69
2023/10/23 01:19:28;;;;;;;20.97;13.00;;;;;;;17.51;84.98;99505.69;5090960;28;20280;-69
2023/10/23 01:21:55;;;;;;;18.10;12.27;;;;;;;17.44;84.99;99506.91;5091326;28;20248;-69
2023/10/23 01:24:23;;;;;;;24.07;11.73;;;;;;;17.37;85.11;99514.22;5091072;28;20662;-69
2023/10/23 01:26:51;;;;;;;20.07;11.80;;;;;;;17.24;85.46;99514.50;5093195;28;20231;-69
2023/10/23 01:29:18;;;;;;;19.87;11.87;;;;;;;17.19;85.93;99520.59;5094802;28;20199;-69
2023/10/23 01:31:44;;;;;;;19.73;11.37;;;;;;;17.12;86.51;99509.19;5095056;28;20256;-69
2023/10/23 01:34:11;;;;;;;16.23;12.17;;;;;;;17.10;86.63;99511.28;5094754;28;20195;-69
2023/10/23 01:36:38;;;;;;;24.47;11.97;;;;;;;17.09;86.74;99514.19;5094611;28;20195;-69
2023/10/23 01:39:05;;;;;;;23.83;12.13;;;;;;;17.00;87.12;99518.31;5094629;28;20225;-69
2023/10/23 01:41:32;;;;;;;19.30;11.40;;;;;;;16.99;87.62;99508.63;5094565;28;20252;-69
2023/10/23 01:44:00;;;;;;;18.53;11.40;;;;;;;17.03;88.23;99512.47;5094557;28;20192;-69
2023/10/23 01:46:26;;;;;;;16.13;10.77;;;;;;;17.09;87.97;99509.66;5094501;28;20271;-69
2023/10/23 01:48:53;;;;;;;19.93;11.93;;;;;;;17.03;86.76;99505.22;5094431;28;20252;-69
2023/10/23 01:51:20;;;;;;;17.50;11.37;;;;;;;17.00;87.30;99507.56;5094498;28;20495;-68
2023/10/23 01:53:46;;;;;;;28.33;12.63;;;;;;;16.96;86.48;99509.09;5094691;28;20359;-68
2023/10/23 01:56:13;;;;;;;19.30;11.17;;;;;;;16.95;86.33;99508.28;5094260;28;20624;-68
2023/10/23 01:58:40;;;;;;;16.70;11.60;;;;;;;16.85;87.46;99502.69;5094510;28;20221;-68
2023/10/23 02:01:19;;;;;;;18.40;11.07;;;;;;;16.85;87.16;99500.03;5094468;28;20226;-68
2023/10/23 02:03:46;;;;;;;19.10;11.53;;;;;;;16.92;86.66;99498.03;5094600;28;20253;-69
2023/10/23 02:06:12;;;;;;;24.17;11.37;;;;;;;16.94;86.32;99498.59;5094046;28;20199;-69
2023/10/23 02:08:39;;;;;;;20.37;10.90;;;;;;;16.92;86.10;99503.41;5094352;28;20191;-69
2023/10/23 02:11:07;;;;;;;19.20;11.07;;;;;;;16.93;86.39;99505.03;5094333;28;20195;-69
2023/10/23 02:13:33;;;;;;;19.07;11.50;;;;;;;16.95;86.33;99504.78;5094370;28;20189;-69
2023/10/23 02:16:00;;;;;;;15.10;9.90;;;;;;;17.00;85.85;99504.88;5093854;28;20199;-69
2023/10/23 02:18:28;;;;;;;25.13;11.00;;;;;;;17.02;85.70;99508.16;5093799;28;20770;-69
2023/10/23 02:20:55;;;;;;;17.63;10.97;;;;;;;17.06;85.79;99509.31;5094092;28;20244;-69
2023/10/23 02:23:21;;;;;;;18.47;11.17;;;;;;;17.08;85.68;99512.56;5093884;28;20624;-69
2023/10/23 02:25:48;;;;;;;21.73;11.93;;;;;;;17.07;85.52;99506.38;5093510;28;20195;-70
2023/10/23 02:28:16;;;;;;;19.67;10.83;;;;;;;17.07;85.75;99517.13;5093790;28;20190;-69
2023/10/23 02:30:42;;;;;;;13.10;10.73;;;;;;;17.08;86.23;99517.94;5093645;28;20195;-70
2023/10/23 02:33:09;;;;;;;17.30;10.27;;;;;;;17.09;85.93;99515.03;5093899;28;20187;-70
2023/10/23 02:35:38;;;;;;;18.43;10.70;;;;;;;17.13;85.81;99523.41;5093622;28;20263;-70
2023/10/23 02:38:05;;;;;;;16.00;10.27;;;;;;;17.17;86.73;99516.50;5092882;28;20215;-70
2023/10/23 02:40:31;;;;;;;20.50;11.67;;;;;;;17.14;85.62;99516.97;5093764;28;20290;-69
2023/10/23 02:42:58;;;;;;;12.97;10.67;;;;;;;17.17;85.42;99513.81;5093532;28;20201;-70
2023/10/23 02:45:25;;;;;;;23.87;12.23;;;;;;;17.18;85.23;99518.13;5093584;28;20641;-69
2023/10/23 02:47:53;;;;;;;22.97;13.10;;;;;;;17.15;84.92;99526.69;5093554;28;20198;-69
2023/10/23 02:50:20;;;;;;;21.13;13.13;;;;;;;17.09;85.15;99516.88;5093752;28;20191;-71
2023/10/23 02:52:48;;;;;;;24.73;11.97;;;;;;;17.07;85.43;99524.38;5093498;28;20197;-70
2023/10/23 02:55:15;;;;;;;21.93;11.47;;;;;;;17.03;85.31;99525.91;5093508;28;20202;-70
2023/10/23 02:57:41;;;;;;;24.03;11.53;;;;;;;17.01;85.58;99527.97;5093146;28;20330;-70
2023/10/23 03:00:09;;;;;;;15.37;10.63;;;;;;;16.96;85.69;99526.03;5093406;28;20252;-70
2023/10/23 03:02:36;;;;;;;24.97;11.87;;;;;;;16.95;85.98;99528.94;5093310;28;20256;-71
2023/10/23 03:05:02;;;;;;;31.93;12.77;;;;;;;16.91;86.10;99528.56;5093413;28;20199;-70
2023/10/23 03:07:29;;;;;;;27.90;11.97;;;;;;;16.87;86.35;99521.25;5093324;28;20193;-72
2023/10/23 03:09:57;;;;;;;20.10;11.57;;;;;;;16.79;86.74;99524.28;5093173;28;20216;-71
2023/10/23 03:12:24;;;;;;;25.37;11.33;;;;;;;16.68;87.05;99517.06;5092861;28;20651;-71
2023/10/23 03:14:51;;;;;;;17.70;11.57;;;;;;;16.63;88.01;99530.38;5092881;28;20197;-70
2023/10/23 03:17:18;;;;;;;22.30;11.87;;;;;;;16.61;88.05;99532.47;5093047;28;20199;-70
2023/10/23 03:19:45;;;;;;;22.77;12.47;;;;;;;16.57;88.53;99524.06;5093251;28;20239;-70
2023/10/23 03:22:12;;;;;;;25.57;12.37;;;;;;;16.49;88.39;99529.78;5092566;28;20194;-70
2023/10/23 03:24:39;;;;;;;23.60;12.67;;;;;;;16.49;88.38;99528.97;5092883;28;20191;-70
2023/10/23 03:27:07;;;;;;;29.70;12.80;;;;;;;16.48;88.10;99538.88;5092846;28;20670;-70
2023/10/23 03:29:34;;;;;;;22.43;12.57;;;;;;;16.49;87.96;99545.06;5092799;28;20225;-70
2023/10/23 03:32:00;;;;;;;29.27;12.87;;;;;;;16.44;87.93;99536.88;5092671;28;20649;-70
2023/10/23 03:34:27;;;;;;;31.17;13.13;;;;;;;16.46;88.14;99542.84;5092785;28;20191;-70
2023/10/23 03:36:54;;;;;;;26.93;12.47;;;;;;;16.44;88.00;99536.88;5092512;28;20251;-70
2023/10/23 03:39:20;;;;;;;33.00;12.90;;;;;;;16.44;88.46;99528.84;5092684;28;20302;-70
2023/10/23 03:41:47;;;;;;;22.90;12.80;;;;;;;16.40;89.09;99535.69;5092508;28;20195;-70
2023/10/23 03:44:15;;;;;;;25.73;12.03;;;;;;;16.25;88.97;99521.94;5092520;28;20195;-69
2023/10/23 03:46:42;;;;;;;23.23;11.97;;;;;;;16.17;89.93;99531.09;5092446;28;20195;-70
2023/10/23 03:49:08;;;;;;;30.90;13.77;;;;;;;16.18;90.51;99521.22;5091365;28;20227;-70
2023/10/23 03:51:35;;;;;;;31.70;13.67;;;;;;;16.14;90.50;99533.44;5092448;28;20324;-70
2023/10/23 03:54:02;;;;;;;31.83;13.80;;;;;;;16.07;90.68;99530.88;5091989;28;20195;-71
2023/10/23 03:56:29;;;;;;;31.57;14.23;;;;;;;16.09;90.56;99527.97;5092151;28;20303;-70
2023/10/23 03:58:56;;;;;;;30.73;12.00;;;;;;;16.10;90.00;99526.91;5091930;28;20230;-70
2023/10/23 04:01:24;;;;;;;29.63;13.13;;;;;;;16.10;89.79;99529.59;5092346;28;20258;-70
2023/10/23 04:03:51;;;;;;;35.47;13.27;;;;;;;16.11;90.00;99536.59;5092113;28;20248;-70
2023/10/23 04:06:18;;;;;;;28.43;13.80;;;;;;;16.13;89.75;99535.31;5091903;28;20195;-70
2023/10/23 04:08:44;;;;;;;27.40;12.97;;;;;;;16.14;89.85;99528.09;5092006;28;20222;-70
2023/10/23 04:11:14;;;;;;;34.73;13.33;;;;;;;16.13;90.11;99521.09;5091811;28;20662;-70
2023/10/23 04:13:40;;;;;;;36.57;15.13;;;;;;;16.12;90.24;99532.88;5091731;28;20249;-70
2023/10/23 04:16:07;;;;;;;61.07;16.20;;;;;;;16.09;90.60;99527.97;5091882;28;20187;-70
2023/10/23 04:18:35;;;;;;;47.23;14.47;;;;;;;16.07;90.86;99527.38;5091556;28;20603;-70
2023/10/23 04:21:03;;;;;;;35.27;14.17;;;;;;;16.02;91.29;99534.22;5091655;28;20260;-70
2023/10/23 04:23:30;;;;;;;41.57;13.57;;;;;;;16.02;91.62;99528.88;5091955;28;20219;-70
2023/10/23 04:25:57;;;;;;;35.07;14.20;;;;;;;16.00;91.59;99534.72;5091666;28;20231;-71
2023/10/23 04:28:24;;;;;;;41.90;14.50;;;;;;;15.97;91.57;99529.81;5091566;28;20675;-70
2023/10/23 04:30:50;;;;;;;34.73;14.57;;;;;;;16.01;91.66;99536.34;5091367;28;20191;-71
2023/10/23 04:33:21;;;;;;;56.97;14.63;;;;;;;16.03;91.46;99545.78;5091737;28;20186;-70
2023/10/23 04:35:50;;;;;;;38.13;12.73;;;;;;;16.07;91.39;99535.41;5091908;28;20218;-71
2023/10/23 04:38:16;;;;;;;38.80;15.20;;;;;;;16.09;91.34;99544.03;5091386;28;20195;-71
2023/10/23 04:40:44;;;;;;;53.87;16.47;;;;;;;15.97;91.20;99536.00;5091488;28;20241;-70
2023/10/23 04:43:10;;;;;;;54.47;15.00;;;;;;;16.06;91.96;99549.84;5091520;28;20191;-70
2023/10/23 04:45:37;;;;;;;37.80;15.30;;;;;;;16.07;91.68;99548.81;5091367;28;20182;-69
2023/10/23 04:48:05;;;;;;;45.33;15.37;;;;;;;16.07;91.38;99546.13;5091603;28;20192;-70
2023/10/23 04:50:32;;;;;;;46.67;17.97;;;;;;;16.07;91.05;99563.03;5091361;28;20650;-70
2023/10/23 04:53:00;;;;;;;50.87;17.27;;;;;;;16.03;91.53;99559.19;5091504;28;20203;-70
2023/10/23 04:55:27;;;;;;;56.40;18.40;;;;;;;16.05;91.50;99558.94;5091667;28;20191;-70
2023/10/23 04:57:53;;;;;;;64.80;20.97;;;;;;;16.08;91.47;99561.19;5091161;28;20655;-70
2023/10/23 05:00:20;;;;;;;83.23;22.23;;;;;;;16.09;91.84;99565.50;5093322;28;20195;-70
2023/10/23 05:02:47;;;;;;;67.73;21.93;;;;;;;16.11;91.73;99569.56;5095769;28;20554;-69
2023/10/23 05:05:14;;;;;;;80.20;22.70;;;;;;;16.08;92.02;99574.56;5095771;28;20201;-69
2023/10/23 05:07:41;;;;;;;75.50;21.03;;;;;;;16.07;92.79;99572.91;5095448;28;20191;-69
2023/10/23 05:10:11;;;;;;;55.47;21.77;;;;;;;16.01;92.58;99579.22;5094976;28;20219;-69
2023/10/23 05:12:38;;;;;;;65.00;22.70;;;;;;;16.02;93.02;99576.31;5095406;28;20244;-69
2023/10/23 05:15:07;;;;;;;69.13;21.60;;;;;;;16.09;92.49;99574.31;5095506;28;20200;-69
2023/10/23 05:17:34;;;;;;;80.97;21.87;;;;;;;16.15;92.15;99586.81;5095159;28;20252;-69
2023/10/23 05:20:04;;;;;;;49.97;18.10;;;;;;;16.23;92.42;99583.81;5094953;28;20195;-69
2023/10/23 05:22:32;;;;;;;52.27;17.43;;;;;;;16.24;92.55;99580.06;5095081;28;20202;-69
2023/10/23 05:24:58;;;;;;;54.23;16.73;;;;;;;16.41;90.05;99597.16;5093928;28;20207;-72
2023/10/23 05:27:27;;;;;;;53.47;17.50;;;;;;;16.58;90.53;99598.09;5094492;28;20219;-70
2023/10/23 05:29:54;;;;;;;67.63;18.80;;;;;;;16.70;89.79;99595.44;5093498;28;20219;-72
2023/10/23 05:32:23;;;;;;;60.83;17.60;;;;;;;16.85;89.66;99596.59;5094751;28;20611;-72
2023/10/23 05:34:50;;;;;;;54.37;16.23;;;;;;;17.01;88.60;99613.88;5093387;28;20685;-70
2023/10/23 05:37:17;;;;;;;36.40;14.67;;;;;;;17.47;90.67;99606.59;5094430;28;20576;-71
2023/10/23 05:39:43;;;;;;;37.40;14.17;;;;;;;18.27;88.06;99615.38;5094480;28;20264;-71
2023/10/23 05:42:10;;;;;;;38.17;14.23;;;;;;;18.93;83.13;99621.63;5094233;28;20201;-69
2023/10/23 05:44:38;;;;;;;30.67;12.53;;;;;;;19.31;80.48;99631.59;5087269;28;20308;-68
2023/10/23 05:47:05;;;;;;;28.10;11.53;;;;;;;19.73;77.67;99632.72;5076145;28;20232;-70
2023/10/23 05:49:34;;;;;;;31.73;12.40;;;;;;;20.10;75.42;99637.19;5073632;28;20230;-70
2023/10/23 05:52:01;;;;;;;33.90;12.30;;;;;;;20.42;74.06;99643.47;5080356;28;20199;-70
2023/10/23 05:54:27;;;;;;;36.77;12.67;;;;;;;20.66;72.28;99649.31;5093770;28;20194;-69
2023/10/23 05:56:54;;;;;;;43.13;13.73;;;;;;;20.86;71.04;99654.91;5093965;28;20195;-69
2023/10/23 05:59:21;;;;;;;30.47;11.83;;;;;;;21.03;69.86;99655.59;5093612;28;20702;-69
2023/10/23 06:01:49;;;;;;;31.17;12.40;;;;;;;21.18;69.74;99655.72;5094040;28;20617;-70
2023/10/23 06:04:15;;;;;;;29.60;11.43;;;;;;;21.42;68.50;99654.22;5092965;28;20643;-72
2023/10/23 06:06:42;;;;;;;41.20;12.97;;;;;;;21.65;67.86;99661.94;5093993;28;20191;-72
2023/10/23 06:09:09;;;;;;;27.53;12.27;;;;;;;21.73;64.92;99664.16;5093576;28;20244;-71
2023/10/23 06:11:36;;;;;;;46.60;13.03;;;;;;;21.78;67.39;99658.78;5092949;28;20195;-72
2023/10/23 06:14:03;;;;;;;31.30;12.73;;;;;;;21.94;66.82;99655.03;5093321;28;20252;-73
2023/10/23 06:16:29;;;;;;;40.37;12.67;;;;;;;22.05;64.66;99659.38;5093758;28;20195;-78
2023/10/23 06:18:57;;;;;;;49.10;12.00;;;;;;;22.11;66.49;99666.47;5093566;28;20191;-73
2023/10/23 06:21:24;;;;;;;42.97;13.07;;;;;;;22.19;65.72;99665.94;5093898;28;20191;-74
2023/10/23 06:23:51;;;;;;;40.73;11.47;;;;;;;22.39;64.72;99660.56;5092978;28;20194;-72
2023/10/23 06:26:18;;;;;;;33.40;11.93;;;;;;;22.58;62.99;99669.81;5089995;28;20703;-71
2023/10/23 06:28:45;;;;;;;38.90;11.83;;;;;;;22.84;62.83;99676.88;5076702;28;20192;-73
2023/10/23 06:31:12;;;;;;;45.13;14.70;;;;;;;23.04;60.32;99685.00;5093097;28;20284;-71
2023/10/23 06:33:42;;;;;;;30.27;10.90;;;;;;;23.25;61.50;99670.38;5093738;28;20197;-73
2023/10/23 06:36:10;;;;;;;36.53;10.87;;;;;;;23.54;59.65;99668.69;5093818;28;20283;-77
2023/10/23 06:38:37;;;;;;;32.87;9.20;;;;;;;23.77;57.73;99668.03;5093751;28;20258;-74
2023/10/23 06:41:05;;;;;;;34.73;9.70;;;;;;;23.91;57.80;99652.00;5091887;28;20201;-75
2023/10/23 06:43:32;;;;;;;30.40;8.80;;;;;;;24.07;54.84;99657.09;5088054;28;20639;-75
2023/10/23 06:45:58;;;;;;;22.43;9.33;;;;;;;23.98;56.70;99652.53;5092831;28;20259;-74
2023/10/23 06:48:25;;;;;;;25.13;9.30;;;;;;;24.15;57.09;99648.38;5093298;28;20734;-72
2023/10/23 06:50:52;;;;;;;32.53;9.23;;;;;;;24.39;55.43;99646.56;5092970;28;20278;-73
2023/10/23 06:53:20;;;;;;;30.10;9.43;;;;;;;24.61;55.14;99647.00;5091640;28;20614;-73
2023/10/23 06:55:50;;;;;;;30.77;9.90;;;;;;;24.85;54.29;99653.31;5092094;28;20198;-73
2023/10/23 06:58:17;;;;;;;53.80;39.07;;;;;;;25.06;52.41;99664.03;5091832;28;20198;-72
2023/10/23 07:00:44;;;;;;;47.57;19.93;;;;;;;25.22;51.03;99663.59;5092624;28;20206;-72
2023/10/23 07:03:10;;;;;;;30.30;9.97;;;;;;;25.18;52.75;99656.31;5092777;28;20256;-74
2023/10/23 07:05:37;;;;;;;40.23;10.13;;;;;;;25.32;51.81;99647.22;5093286;28;20272;-74
2023/10/23 07:08:04;;;;;;;25.60;9.47;;;;;;;25.52;51.40;99643.44;5092770;28;20719;-74
2023/10/23 07:10:33;;;;;;;30.67;9.13;;;;;;;25.75;49.27;99650.78;5092821;28;20265;-79
2023/10/23 07:13:00;;;;;;;29.57;9.27;;;;;;;25.94;49.49;99643.50;5092990;28;20347;-75
2023/10/23 07:15:27;;;;;;;27.60;9.33;;;;;;;26.13;49.53;99647.84;5092973;28;20248;-75
2023/10/23 07:17:54;;;;;;;34.07;10.07;;;;;;;26.30;47.59;99644.63;5093012;28;20692;-76
2023/10/23 07:20:20;;;;;;;33.70;10.23;;;;;;;26.19;48.27;99643.16;5093032;28;20203;-74
2023/10/23 07:22:47;;;;;;;25.53;9.87;;;;;;;26.19;50.02;99635.78;5093079;28;20191;-75
2023/10/23 07:25:14;;;;;;;21.73;8.37;;;;;;;26.37;50.19;99631.47;5092380;28;20674;-76
2023/10/23 07:27:42;;;;;;;31.80;9.17;;;;;;;26.61;48.34;99618.53;5093080;28;20227;-75
2023/10/23 07:30:11;;;;;;;27.30;8.50;;;;;;;26.95;46.73;99621.81;5092764;28;20226;-81
2023/10/23 07:32:37;;;;;;;29.20;8.30;;;;;;;27.25;45.68;99615.81;5092877;28;20191;-82
2023/10/23 07:35:04;;;;;;;31.60;8.80;;;;;;;27.42;45.77;99614.13;5092757;28;20550;-81
2023/10/23 07:37:32;;;;;;;35.10;8.47;;;;;;;27.66;45.17;99622.09;5092594;28;20634;-76
2023/10/23 07:39:59;;;;;;;23.97;7.50;;;;;;;27.69;43.53;99621.50;5092840;28;20283;-76
2023/10/23 07:42:27;;;;;;;24.23;7.37;;;;;;;27.76;43.81;99622.69;5092621;28;20368;-78
2023/10/23 07:44:55;;;;;;;29.27;8.60;;;;;;;27.77;44.34;99623.50;5092403;28;20734;-75
2023/10/23 07:47:22;;;;;;;31.87;7.77;;;;;;;27.85;44.06;99631.00;5091535;28;20620;-79
2023/10/23 07:49:48;;;;;;;17.47;6.83;;;;;;;27.76;44.15;99627.34;5092365;28;20284;-79
2023/10/23 07:52:15;;;;;;;29.57;8.17;;;;;;;27.79;44.26;99629.44;5091583;28;20252;-79
2023/10/23 07:54:42;;;;;;;31.40;7.97;;;;;;;27.93;42.90;99628.34;5092694;28;20194;-77
2023/10/23 07:57:08;;;;;;;17.40;7.30;;;;;;;28.09;43.39;99615.97;5092153;28;20663;-74
2023/10/23 07:59:35;;;;;;;29.33;7.40;;;;;;;28.18;43.00;99627.00;5092155;28;20227;-79
2023/10/23 08:02:04;;;;;;;25.40;7.80;;;;;;;28.29;41.95;99625.63;5091819;28;20603;-75
2023/10/23 08:04:30;;;;;;;16.97;6.80;;;;;;;28.41;41.25;99628.66;5092416;28;20260;-74
2023/10/23 08:06:57;;;;;;;14.87;6.40;;;;;;;28.33;41.91;99624.72;5092063;28;20192;-74
2023/10/23 08:09:24;;;;;;;20.63;6.80;;;;;;;28.32;41.50;99625.03;5091783;28;20228;-71
2023/10/23 08:11:51;;;;;;;19.37;6.17;;;;;;;28.30;41.62;99621.81;5092227;28;20195;-73
2023/10/23 08:14:17;;;;;;;23.77;7.27;;;;;;;28.29;41.38;99626.44;5091971;28;20223;-72
2023/10/23 08:16:44;;;;;;;21.63;7.20;;;;;;;28.50;41.92;99629.56;5092237;28;20256;-73
2023/10/23 08:19:12;;;;;;;22.30;6.67;;;;;;;28.71;41.63;99628.75;5091887;28;20187;-72
2023/10/23 08:21:39;;;;;;;33.27;7.13;;;;;;;28.85;39.45;99632.22;5092092;28;20230;-72
2023/10/23 08:24:06;;;;;;;26.73;7.57;;;;;;;28.86;39.45;99620.16;5092242;28;20192;-72
2023/10/23 08:26:33;;;;;;;21.07;6.27;;;;;;;29.05;39.58;99618.06;5091536;28;20233;-72
2023/10/23 08:29:00;;;;;;;28.20;7.93;;;;;;;29.24;38.85;99618.63;5092154;28;20199;-72
2023/10/23 08:31:27;;;;;;;23.47;6.50;;;;;;;29.35;39.36;99619.16;5090727;28;20252;-71
2023/10/23 08:33:53;;;;;;;22.60;7.70;;;;;;;29.53;39.06;99623.59;5091933;28;20199;-71
2023/10/23 08:36:22;;;;;;;22.43;6.77;;;;;;;29.70;38.03;99617.38;5091163;28;20195;-70
2023/10/23 08:38:49;;;;;;;24.33;7.47;;;;;;;29.76;38.92;99618.84;5090842;28;20290;-71
2023/10/23 08:41:15;;;;;;;32.87;7.30;;;;;;;29.66;37.65;99619.13;5091810;28;20251;-71
2023/10/23 08:43:42;;;;;;;25.13;6.70;;;;;;;29.75;38.37;99614.47;5091410;28;20195;-72
2023/10/23 08:46:09;;;;;;;24.43;7.93;;;;;;;29.70;39.43;99606.41;5091390;28;20199;-71
2023/10/23 08:48:37;;;;;;;23.37;7.13;;;;;;;29.27;37.46;99558.91;5091491;28;20194;-71
2023/10/23 08:51:04;;;;;;;25.97;6.93;;;;;;;29.40;37.35;99608.09;5091379;28;20250;-70
2023/10/23 08:53:34;;;;;;;20.47;7.70;;;;;;;29.50;40.34;99602.31;5091473;28;20192;-71
2023/10/23 08:56:05;;;;;;;28.80;8.43;;;;;;;29.70;40.03;99599.03;5091699;28;20199;-70
2023/10/23 08:58:34;;;;;;;36.53;9.27;;;;;;;29.85;38.77;99593.09;5090988;28;20179;-70
2023/10/23 09:01:00;;;;;;;24.07;8.63;;;;;;;29.94;38.53;99588.44;5091043;28;20802;-70
2023/10/23 09:03:28;;;;;;;24.50;7.50;;;;;;;30.10;37.32;99595.06;5091094;28;20199;-71
2023/10/23 09:05:58;;;;;;;18.90;6.13;;;;;;;30.26;36.96;99593.50;5091172;28;20237;-71
2023/10/23 09:08:27;;;;;;;25.93;6.77;;;;;;;30.40;35.85;99594.13;5089941;28;20724;-72
2023/10/23 09:11:02;;;;;;;19.07;6.23;;;;;;;30.40;36.23;99577.69;5088657;28;20252;-70
2023/10/23 09:13:34;;;;;;;19.80;6.60;;;;;;;30.30;36.49;99583.50;5077756;28;20191;-72
2023/10/23 09:16:01;;;;;;;18.73;7.07;;;;;;;30.22;36.62;99575.25;5085921;28;20200;-71
2023/10/23 09:18:27;;;;;;;25.73;6.93;;;;;;;30.17;35.26;99573.47;5087505;28;20256;-72
2023/10/23 09:20:55;;;;;;;15.07;6.40;;;;;;;30.30;35.10;99572.53;5090775;28;20248;-72
2023/10/23 09:23:22;;;;;;;31.20;6.87;;;;;;;30.39;35.34;99567.84;5090985;28;20195;-73
2023/10/23 09:25:49;;;;;;;24.57;8.27;;;;;;;30.42;35.41;99564.44;5090515;28;20662;-73
2023/10/23 09:28:17;;;;;;;19.90;7.07;;;;;;;30.45;34.89;99563.78;5082744;28;20593;-74
2023/10/23 09:30:44;;;;;;;19.60;6.87;;;;;;;30.55;35.68;99558.00;5074417;28;20234;-78
2023/10/23 09:33:14;;;;;;;37.33;7.47;;;;;;;30.65;35.25;99554.88;5091082;28;20192;-82
2023/10/23 09:35:41;;;;;;;27.23;7.50;;;;;;;30.48;35.73;99554.09;5090492;28;20691;-75
2023/10/23 09:38:18;;;;;;;24.37;7.37;;;;;;;30.35;35.96;99546.88;5091287;28;20283;-71
2023/10/23 09:40:45;;;;;;;23.70;7.43;;;;;;;30.21;35.55;99546.25;5089818;28;20274;-72
2023/10/23 09:43:13;;;;;;;26.63;7.67;;;;;;;30.26;35.36;99540.59;5088742;28;20195;-72
2023/10/23 09:45:42;;;;;;;23.40;7.10;;;;;;;30.26;35.34;99537.84;5088737;28;20191;-72
2023/10/23 09:48:12;;;;;;;31.00;6.50;;;;;;;30.26;35.67;99533.19;5092874;28;20195;-72
2023/10/23 09:50:42;;;;;;;27.67;6.53;;;;;;;30.24;34.85;99545.56;5091926;28;20211;-69
2023/10/23 09:53:11;;;;;;;27.13;7.43;;;;;;;30.31;34.91;99543.97;5091679;28;20200;-70
2023/10/23 09:55:41;;;;;;;30.50;6.93;;;;;;;30.37;34.96;99539.94;5091240;28;20199;-70
2023/10/23 09:58:14;;;;;;;28.17;8.30;;;;;;;30.44;34.99;99537.50;5092352;28;20195;-70
2023/10/23 10:00:46;;;;;;;26.67;7.67;;;;;;;30.53;34.85;99526.53;5096189;28;20230;-70
2023/10/23 10:03:16;;;;;;;15.63;5.80;;;;;;;30.51;36.06;99520.56;5106481;28;20625;-71
2023/10/23 10:05:47;;;;;;;40.27;7.27;;;;;;;30.44;35.61;99515.56;5093267;28;20240;-69
2023/10/23 10:08:15;;;;;;;23.87;7.23;;;;;;;30.33;36.08;99519.78;5093951;28;20215;-69
2023/10/23 10:10:43;;;;;;;26.67;6.60;;;;;;;30.17;36.24;99513.19;5093561;28;20670;-70
2023/10/23 10:13:11;;;;;;;61.67;10.13;;;;;;;30.16;35.39;99516.25;5093375;28;20678;-69
2023/10/23 10:15:39;;;;;;;25.07;6.57;;;;;;;30.13;36.48;99495.75;5092134;28;20268;-69
2023/10/23 10:18:07;;;;;;;28.07;7.17;;;;;;;30.15;36.23;99503.66;5091995;28;20203;-68
2023/10/23 10:20:36;;;;;;;30.23;7.50;;;;;;;30.01;36.25;99503.81;5093424;28;20199;-69
2023/10/23 10:23:08;;;;;;;25.93;6.47;;;;;;;29.97;36.69;99496.56;5092681;28;20192;-70
2023/10/23 10:25:37;;;;;;;27.80;6.20;;;;;;;29.89;36.33;99495.47;5092989;28;20604;-71
2023/10/23 10:28:05;;;;;;;27.90;7.03;;;;;;;29.85;35.46;99499.16;5093975;28;20605;-71
2023/10/23 10:30:41;;;;;;;29.00;6.23;;;;;;;29.83;35.78;99496.72;5093648;28;20288;-69
2023/10/23 10:33:20;;;;;;;42.00;7.57;;;;;;;29.90;36.35;99488.84;5083117;28;20630;-69
2023/10/23 10:35:49;;;;;;;25.67;7.13;;;;;;;30.05;36.08;99491.06;5089923;28;20211;-69
2023/10/23 10:38:20;;;;;;;19.97;6.03;;;;;;;30.14;35.67;99489.19;5091253;28;20195;-70
2023/10/23 10:41:00;;;;;;;21.77;6.67;;;;;;;30.02;36.17;99475.31;5093174;28;20685;-71
2023/10/23 10:43:33;;;;;;;26.53;6.53;;;;;;;29.71;35.58;99477.38;5091727;28;20187;-71
2023/10/23 10:46:04;;;;;;;20.20;6.43;;;;;;;29.68;36.59;99467.06;5076236;28;20222;-71
2023/10/23 10:48:43;;;;;;;25.43;7.77;;;;;;;29.86;36.63;99457.75;5092899;28;20184;-71
2023/10/23 10:51:10;;;;;;;28.00;6.87;;;;;;;29.98;36.31;99460.63;5090836;28;20630;-69
2023/10/23 10:53:40;;;;;;;35.03;7.77;;;;;;;30.08;36.33;99451.28;5092876;28;20662;-70
2023/10/23 10:56:08;;;;;;;34.30;6.70;;;;;;;30.11;35.97;99459.66;5092879;28;20191;-70
2023/10/23 10:58:36;;;;;;;23.90;6.70;;;;;;;30.17;35.67;99452.88;5092397;28;20678;-69
2023/10/23 11:01:03;;;;;;;24.37;6.37;;;;;;;30.21;35.11;99451.09;5093197;28;20199;-69
2023/10/23 11:03:30;;;;;;;28.90;7.20;;;;;;;30.18;35.27;99449.03;5092359;28;20198;-70
2023/10/23 11:05:59;;;;;;;28.77;6.93;;;;;;;30.13;34.86;99451.88;5092926;28;20615;-71
2023/10/23 11:08:27;;;;;;;27.30;6.30;;;;;;;29.96;34.98;99451.91;5092759;28;20199;-71
2023/10/23 11:10:56;;;;;;;29.83;7.53;;;;;;;29.93;34.95;99441.59;5091951;28;20272;-72
2023/10/23 11:13:23;;;;;;;18.77;6.37;;;;;;;29.92;35.72;99450.94;5092488;28;20244;-70
2023/10/23 11:15:55;;;;;;;28.70;6.93;;;;;;;29.87;35.39;99426.47;5093124;28;20191;-71
2023/10/23 11:18:21;;;;;;;28.23;7.43;;;;;;;29.90;35.72;99433.22;5093376;28;20620;-72
2023/10/23 11:20:48;;;;;;;32.53;7.73;;;;;;;29.84;35.38;99438.06;5092803;28;20726;-72